Time;durP1;ratioP1;P1;durP2;ratioP2;P2;SDS_P1;SDS_P2;PMS_P1;PMS_P2;Temp;Humidity;BMP_temperature;BMP_pressure;BME280_temperature;BME280_humidity;BME280_pressure;Samples;Min_cycle;Max_cycle;Signal;HPM_P1;HPM_P2
2022/07/06 00:01:43;;;;;;;4.93;2.10;;;;;;;;;;5015253;28;20029;-74
2022/07/06 00:04:09;;;;;;;4.82;2.20;;;;;;;;;;5015656;28;20030;-74
2022/07/06 00:06:35;;;;;;;7.05;2.47;;;;;;;;;;5025290;28;20104;-74
2022/07/06 00:09:01;;;;;;;3.45;2.45;;;;;;;;;;5035124;28;20025;-74
2022/07/06 00:11:27;;;;;;;5.90;2.40;;;;;;;;;;5035350;28;20029;-73
2022/07/06 00:13:53;;;;;;;3.60;2.03;;;;;;;;;;5035088;28;20079;-74
2022/07/06 00:16:20;;;;;;;6.05;2.30;;;;;;;;;;5034853;28;20025;-74
2022/07/06 00:18:46;;;;;;;5.35;2.10;;;;;;;;;;5016768;28;20444;-74
2022/07/06 00:21:12;;;;;;;4.97;2.25;;;;;;;;;;5015019;28;20034;-73
2022/07/06 00:23:38;;;;;;;5.68;2.20;;;;;;;;;;5015096;28;20384;-74
2022/07/06 00:26:04;;;;;;;3.83;2.00;;;;;;;;;;5013847;28;20030;-74
2022/07/06 00:28:30;;;;;;;5.05;2.35;;;;;;;;;;5014806;28;20026;-73
2022/07/06 00:30:56;;;;;;;5.20;2.42;;;;;;;;;;5014844;28;20022;-74
2022/07/06 00:33:22;;;;;;;6.10;2.58;;;;;;;;;;5014729;28;20029;-73
2022/07/06 00:35:48;;;;;;;8.23;3.08;;;;;;;;;;5015029;28;20160;-73
2022/07/06 00:38:15;;;;;;;4.13;2.15;;;;;;;;;;5015048;28;20101;-74
2022/07/06 00:40:41;;;;;;;4.53;2.80;;;;;;;;;;5014970;28;20029;-73
2022/07/06 00:43:07;;;;;;;6.40;2.55;;;;;;;;;;5014823;28;20029;-73
2022/07/06 00:45:33;;;;;;;5.93;2.55;;;;;;;;;;5014612;28;20420;-73
2022/07/06 00:47:59;;;;;;;5.80;2.60;;;;;;;;;;5014562;28;20037;-73
2022/07/06 00:50:25;;;;;;;6.03;2.47;;;;;;;;;;5014530;28;20037;-73
2022/07/06 00:52:51;;;;;;;5.00;2.40;;;;;;;;;;5013265;28;20029;-74
2022/07/06 00:55:18;;;;;;;10.13;2.55;;;;;;;;;;5014517;28;20117;-74
2022/07/06 00:57:45;;;;;;;5.95;2.95;;;;;;;;;;5014699;28;20030;-74
2022/07/06 01:00:12;;;;;;;4.10;2.28;;;;;;;;;;5014355;28;20026;-74
2022/07/06 01:02:38;;;;;;;4.82;2.22;;;;;;;;;;5014466;28;20408;-73
2022/07/06 01:05:05;;;;;;;3.63;2.17;;;;;;;;;;5014108;28;20025;-74
2022/07/06 01:07:31;;;;;;;4.32;2.45;;;;;;;;;;5031790;28;20112;-73
2022/07/06 01:09:57;;;;;;;8.55;2.70;;;;;;;;;;5033921;28;20464;-73
2022/07/06 01:12:24;;;;;;;8.77;2.65;;;;;;;;;;5034475;28;20068;-74
2022/07/06 01:14:50;;;;;;;4.45;2.53;;;;;;;;;;5033733;28;20510;-74
2022/07/06 01:17:16;;;;;;;6.35;2.70;;;;;;;;;;5027491;28;20029;-74
2022/07/06 01:19:42;;;;;;;2.50;2.00;;;;;;;;;;5013852;28;20076;-74
2022/07/06 01:22:11;;;;;;;4.35;2.58;;;;;;;;;;5013638;28;20031;-74
2022/07/06 01:24:37;;;;;;;6.10;2.58;;;;;;;;;;5013930;28;20022;-73
2022/07/06 01:27:07;;;;;;;4.32;2.60;;;;;;;;;;5013748;28;20029;-74
2022/07/06 01:29:33;;;;;;;6.85;2.72;;;;;;;;;;5013822;28;20088;-73
2022/07/06 01:31:59;;;;;;;3.53;2.67;;;;;;;;;;5013678;28;20065;-73
2022/07/06 01:34:25;;;;;;;3.92;2.33;;;;;;;;;;5013732;28;20103;-74
2022/07/06 01:36:52;;;;;;;4.60;2.15;;;;;;;;;;5013439;28;20018;-73
2022/07/06 01:39:18;;;;;;;5.95;2.90;;;;;;;;;;5013779;28;20032;-74
2022/07/06 01:41:44;;;;;;;7.72;2.70;;;;;;;;;;5013579;28;20037;-73
2022/07/06 01:44:10;;;;;;;4.07;2.40;;;;;;;;;;5013661;28;20546;-74
2022/07/06 01:46:36;;;;;;;6.65;2.63;;;;;;;;;;5013367;28;20532;-74
2022/07/06 01:49:02;;;;;;;5.93;2.85;;;;;;;;;;5013576;28;20060;-73
2022/07/06 01:51:28;;;;;;;5.28;2.35;;;;;;;;;;5013250;28;20490;-74
2022/07/06 01:53:54;;;;;;;3.03;2.40;;;;;;;;;;5013414;28;20025;-74
2022/07/06 01:56:20;;;;;;;8.40;2.80;;;;;;;;;;5013445;28;20033;-73
2022/07/06 01:58:47;;;;;;;5.75;2.55;;;;;;;;;;5013254;28;20112;-73
2022/07/06 02:01:17;;;;;;;6.78;2.80;;;;;;;;;;5013165;28;20485;-75
2022/07/06 02:03:44;;;;;;;7.10;2.60;;;;;;;;;;5013230;28;20030;-73
2022/07/06 02:06:11;;;;;;;6.80;2.72;;;;;;;;;;5019614;28;20037;-75
2022/07/06 02:08:38;;;;;;;6.30;2.58;;;;;;;;;;5033023;28;20025;-75
2022/07/06 02:11:04;;;;;;;6.00;2.47;;;;;;;;;;5033012;28;20029;-73
2022/07/06 02:13:30;;;;;;;6.13;2.78;;;;;;;;;;5032985;28;20127;-75
2022/07/06 02:15:56;;;;;;;5.25;2.50;;;;;;;;;;5032470;28;20029;-75
2022/07/06 02:18:22;;;;;;;5.40;2.38;;;;;;;;;;5013387;28;20034;-75
2022/07/06 02:20:48;;;;;;;4.47;3.13;;;;;;;;;;4993173;28;20097;-75
2022/07/06 02:23:14;;;;;;;5.28;2.90;;;;;;;;;;4993270;28;20033;-75
2022/07/06 02:25:41;;;;;;;9.63;2.97;;;;;;;;;;4993270;28;20022;-75
2022/07/06 02:28:07;;;;;;;5.57;2.90;;;;;;;;;;4992994;28;20033;-75
2022/07/06 02:30:33;;;;;;;7.32;2.90;;;;;;;;;;5007733;28;20093;-75
2022/07/06 02:32:59;;;;;;;8.13;3.25;;;;;;;;;;4993097;28;20065;-75
2022/07/06 02:35:25;;;;;;;7.95;2.65;;;;;;;;;;4993014;28;20042;-75
2022/07/06 02:37:51;;;;;;;8.32;2.63;;;;;;;;;;4993175;28;20105;-75
2022/07/06 02:40:17;;;;;;;7.18;2.80;;;;;;;;;;4992876;28;20030;-75
2022/07/06 02:42:43;;;;;;;3.97;2.70;;;;;;;;;;4992993;28;20034;-75
2022/07/06 02:45:10;;;;;;;8.02;3.10;;;;;;;;;;4999557;28;20096;-75
2022/07/06 02:47:37;;;;;;;9.38;2.97;;;;;;;;;;5012440;28;20445;-75
2022/07/06 02:50:03;;;;;;;9.10;2.97;;;;;;;;;;5011594;28;20018;-75
2022/07/06 02:52:29;;;;;;;6.20;3.22;;;;;;;;;;5012416;28;20037;-75
2022/07/06 02:54:55;;;;;;;7.78;3.30;;;;;;;;;;5012256;28;20042;-75
2022/07/06 02:57:21;;;;;;;7.00;2.90;;;;;;;;;;5012178;28;20122;-75
2022/07/06 02:59:49;;;;;;;5.72;3.08;;;;;;;;;;5011985;28;20478;-75
2022/07/06 03:02:15;;;;;;;8.13;3.75;;;;;;;;;;5012225;28;20037;-75
2022/07/06 03:04:42;;;;;;;6.95;3.15;;;;;;;;;;5012078;28;20064;-75
2022/07/06 03:07:08;;;;;;;9.15;2.90;;;;;;;;;;5025992;28;20030;-75
2022/07/06 03:09:34;;;;;;;7.93;2.65;;;;;;;;;;5031566;28;20021;-75
2022/07/06 03:12:00;;;;;;;4.13;2.40;;;;;;;;;;5031737;28;20025;-75
2022/07/06 03:14:26;;;;;;;4.15;2.50;;;;;;;;;;5032031;28;20024;-75
2022/07/06 03:16:53;;;;;;;5.13;2.58;;;;;;;;;;5029110;28;20021;-75
2022/07/06 03:19:19;;;;;;;6.03;2.75;;;;;;;;;;5012203;28;20081;-75
2022/07/06 03:21:45;;;;;;;12.23;5.13;;;;;;;;;;5012059;28;20527;-75
2022/07/06 03:24:11;;;;;;;8.82;3.22;;;;;;;;;;5012263;28;20033;-75
2022/07/06 03:26:37;;;;;;;5.43;2.90;;;;;;;;;;5012191;28;20105;-75
2022/07/06 03:29:03;;;;;;;7.97;2.60;;;;;;;;;;5012091;28;20444;-75
2022/07/06 03:31:29;;;;;;;5.32;3.17;;;;;;;;;;5012151;28;20026;-75
2022/07/06 03:33:55;;;;;;;6.07;2.80;;;;;;;;;;5011806;28;20026;-75
2022/07/06 03:36:21;;;;;;;6.60;2.67;;;;;;;;;;5012090;28;20033;-75
2022/07/06 03:38:47;;;;;;;8.02;2.78;;;;;;;;;;5012197;28;20026;-75
2022/07/06 03:41:13;;;;;;;4.68;2.42;;;;;;;;;;5012002;28;20026;-75
2022/07/06 03:43:39;;;;;;;5.47;2.58;;;;;;;;;;5012013;28;20330;-75
2022/07/06 03:46:05;;;;;;;8.85;3.22;;;;;;;;;;5011876;28;20018;-75
2022/07/06 03:48:31;;;;;;;8.05;3.75;;;;;;;;;;5010803;28;20353;-75
2022/07/06 03:50:57;;;;;;;5.20;2.72;;;;;;;;;;5011815;28;20356;-75
2022/07/06 03:53:24;;;;;;;7.88;2.78;;;;;;;;;;5012025;28;20460;-75
2022/07/06 03:58:34;;;;;;;6.32;2.80;;;;;;;;;;5012431;28;20117;-75
2022/07/06 04:01:00;;;;;;;6.60;3.38;;;;;;;;;;5014449;28;20088;-75
2022/07/06 04:03:26;;;;;;;8.63;2.88;;;;;;;;;;5015568;28;20033;-75
2022/07/06 04:05:53;;;;;;;13.52;2.85;;;;;;;;;;5019452;28;20048;-75
2022/07/06 04:08:19;;;;;;;8.25;2.90;;;;;;;;;;5035171;28;20030;-75
2022/07/06 04:10:45;;;;;;;5.82;2.72;;;;;;;;;;5035273;28;20152;-75
2022/07/06 04:13:12;;;;;;;9.73;3.17;;;;;;;;;;5035008;28;20056;-75
2022/07/06 04:15:39;;;;;;;5.65;2.38;;;;;;;;;;5034903;28;20030;-75
2022/07/06 04:18:05;;;;;;;6.30;3.08;;;;;;;;;;5021243;28;20101;-75
2022/07/06 04:20:31;;;;;;;8.75;3.40;;;;;;;;;;5015107;28;20088;-74
2022/07/06 04:22:57;;;;;;;4.80;2.60;;;;;;;;;;5015272;28;20053;-75
2022/07/06 04:25:23;;;;;;;12.55;3.03;;;;;;;;;;5015235;28;20071;-75
2022/07/06 04:27:49;;;;;;;7.15;3.10;;;;;;;;;;5015222;28;20157;-75
2022/07/06 04:30:15;;;;;;;7.88;2.92;;;;;;;;;;5014838;28;20116;-75
2022/07/06 04:32:41;;;;;;;9.32;2.50;;;;;;;;;;5013715;28;20117;-75
2022/07/06 04:35:08;;;;;;;5.80;2.88;;;;;;;;;;5014452;28;20029;-75
2022/07/06 04:37:34;;;;;;;8.02;2.80;;;;;;;;;;5014793;28;20053;-75
2022/07/06 04:40:00;;;;;;;11.23;3.38;;;;;;;;;;5014514;28;20034;-75
2022/07/06 04:42:26;;;;;;;6.03;2.90;;;;;;;;;;5014709;28;20026;-75
2022/07/06 04:44:52;;;;;;;6.03;2.85;;;;;;;;;;5014405;28;20101;-75
2022/07/06 04:47:18;;;;;;;10.13;2.75;;;;;;;;;;5014493;28;20061;-75
2022/07/06 04:49:44;;;;;;;6.18;3.15;;;;;;;;;;5014450;28;20037;-75
2022/07/06 04:52:10;;;;;;;4.85;2.53;;;;;;;;;;5013850;28;20552;-75
2022/07/06 04:54:37;;;;;;;8.45;2.78;;;;;;;;;;5014192;28;20635;-75
2022/07/06 04:57:03;;;;;;;8.07;2.85;;;;;;;;;;5014203;28;20030;-75
2022/07/06 04:59:29;;;;;;;6.65;2.90;;;;;;;;;;5013983;28;20510;-75
2022/07/06 05:01:55;;;;;;;7.20;3.22;;;;;;;;;;5011847;28;20030;-74
2022/07/06 05:04:22;;;;;;;7.10;2.60;;;;;;;;;;4994244;28;20034;-75
2022/07/06 05:06:48;;;;;;;6.88;2.42;;;;;;;;;;5012311;28;20021;-74
2022/07/06 05:09:14;;;;;;;5.53;2.60;;;;;;;;;;5033950;28;20025;-75
2022/07/06 05:11:40;;;;;;;8.02;2.40;;;;;;;;;;5033428;28;20514;-75
2022/07/06 05:14:06;;;;;;;6.63;2.40;;;;;;;;;;5034031;28;20033;-74
2022/07/06 05:16:32;;;;;;;8.38;2.40;;;;;;;;;;5033637;28;20029;-75
2022/07/06 05:18:59;;;;;;;8.40;2.00;;;;;;;;;;5014073;28;20424;-75
2022/07/06 05:21:25;;;;;;;7.80;2.33;;;;;;;;;;5029113;28;20464;-74
2022/07/06 05:23:51;;;;;;;10.85;2.10;;;;;;;;;;5013853;28;20717;-75
2022/07/06 05:26:17;;;;;;;6.03;2.53;;;;;;;;;;5013898;28;20037;-74
2022/07/06 05:28:43;;;;;;;12.93;2.20;;;;;;;;;;5013821;28;20053;-74
2022/07/06 05:31:09;;;;;;;7.07;1.83;;;;;;;;;;5028722;28;20120;-75
2022/07/06 05:33:35;;;;;;;3.78;1.35;;;;;;;;;;5013839;28;20452;-74
2022/07/06 05:36:01;;;;;;;8.02;1.65;;;;;;;;;;5013410;28;20104;-75
2022/07/06 05:38:27;;;;;;;4.03;1.60;;;;;;;;;;5013845;28;20026;-75
2022/07/06 05:40:53;;;;;;;5.15;1.75;;;;;;;;;;5028763;28;20388;-75
2022/07/06 05:43:19;;;;;;;10.60;1.90;;;;;;;;;;5013612;28;20457;-75
2022/07/06 05:45:46;;;;;;;6.20;1.20;;;;;;;;;;5013375;28;20172;-75
2022/07/06 05:50:56;;;;;;;6.50;1.05;;;;;;;;;;5013320;28;20554;-75
2022/07/06 05:53:22;;;;;;;5.47;1.20;;;;;;;;;;5013579;28;20021;-75
2022/07/06 05:55:48;;;;;;;6.28;1.00;;;;;;;;;;5013489;28;20160;-75
2022/07/06 05:58:15;;;;;;;8.07;1.20;;;;;;;;;;5013340;28;20057;-75
2022/07/06 06:00:41;;;;;;;5.68;0.77;;;;;;;;;;5013148;28;20524;-75
2022/07/06 06:03:07;;;;;;;8.40;1.38;;;;;;;;;;5013181;28;20537;-75
2022/07/06 06:05:33;;;;;;;3.83;0.90;;;;;;;;;;5013256;28;20072;-75
2022/07/06 06:07:59;;;;;;;6.68;0.82;;;;;;;;;;5030175;28;20025;-75
2022/07/06 06:10:25;;;;;;;6.38;0.90;;;;;;;;;;5032666;28;20026;-75
2022/07/06 06:12:51;;;;;;;4.22;0.77;;;;;;;;;;5032660;28;20104;-75
2022/07/06 06:15:17;;;;;;;4.13;0.60;;;;;;;;;;5032559;28;20464;-75
2022/07/06 06:17:44;;;;;;;3.15;0.73;;;;;;;;;;5023150;28;20125;-75
2022/07/06 06:20:11;;;;;;;5.15;1.50;;;;;;;;;;5013061;28;20037;-74
2022/07/06 06:22:54;;;;;;;4.90;0.70;;;;;;;;;;4997471;28;20109;-74
2022/07/06 06:25:22;;;;;;;8.05;1.27;;;;;;;;;;4992667;28;20073;-74
2022/07/06 06:27:48;;;;;;;4.72;0.70;;;;;;;;;;5000654;28;20022;-74
2022/07/06 06:30:14;;;;;;;8.57;1.15;;;;;;;;;;5001542;28;20054;-74
2022/07/06 06:32:40;;;;;;;6.38;0.65;;;;;;;;;;5001234;28;20018;-74
2022/07/06 06:35:07;;;;;;;6.18;0.65;;;;;;;;;;5001210;28;20029;-74
2022/07/06 06:37:37;;;;;;;4.93;0.60;;;;;;;;;;5002881;28;20084;-74
2022/07/06 06:40:04;;;;;;;5.82;0.80;;;;;;;;;;5003274;28;20536;-74
2022/07/06 06:42:30;;;;;;;3.10;0.70;;;;;;;;;;5003652;28;20026;-75
2022/07/06 06:44:56;;;;;;;4.78;0.85;;;;;;;;;;5004173;28;20112;-76
2022/07/06 06:47:22;;;;;;;2.55;0.75;;;;;;;;;;5003543;28;20025;-76
2022/07/06 06:49:48;;;;;;;4.25;0.70;;;;;;;;;;5000180;28;20128;-75
2022/07/06 06:52:14;;;;;;;2.90;0.47;;;;;;;;;;5003096;28;20017;-75
2022/07/06 06:54:40;;;;;;;6.15;0.90;;;;;;;;;;4996998;28;20035;-76
2022/07/06 06:57:07;;;;;;;4.85;0.88;;;;;;;;;;4999599;28;20061;-74
2022/07/06 06:59:33;;;;;;;7.80;0.70;;;;;;;;;;4994325;28;20061;-74
2022/07/06 07:01:59;;;;;;;6.25;0.70;;;;;;;;;;4993184;28;20027;-74
2022/07/06 07:04:25;;;;;;;1.80;0.95;;;;;;;;;;4993344;28;20026;-73
2022/07/06 07:06:51;;;;;;;7.50;0.60;;;;;;;;;;5005969;28;20021;-73
2022/07/06 07:09:17;;;;;;;3.33;0.60;;;;;;;;;;5031829;28;20022;-74
2022/07/06 07:11:43;;;;;;;6.28;0.50;;;;;;;;;;5032378;28;20486;-75
2022/07/06 07:14:09;;;;;;;3.70;0.35;;;;;;;;;;5032286;28;20101;-76
2022/07/06 07:16:35;;;;;;;4.90;0.52;;;;;;;;;;5030574;28;20117;-73
2022/07/06 07:19:01;;;;;;;4.03;0.40;;;;;;;;;;5012339;28;20053;-74
2022/07/06 07:21:27;;;;;;;2.00;0.63;;;;;;;;;;5011963;28;20022;-74
2022/07/06 07:23:53;;;;;;;3.45;0.40;;;;;;;;;;5012259;28;20156;-76
2022/07/06 07:26:19;;;;;;;3.65;0.40;;;;;;;;;;5012356;28;20164;-76
2022/07/06 07:28:49;;;;;;;3.83;0.60;;;;;;;;;;5011967;28;20057;-77
2022/07/06 07:31:15;;;;;;;2.83;0.43;;;;;;;;;;5012348;28;20030;-79
2022/07/06 07:33:41;;;;;;;1.48;0.38;;;;;;;;;;5012562;28;20080;-75
2022/07/06 07:36:07;;;;;;;2.60;0.40;;;;;;;;;;5015502;28;20464;-76
2022/07/06 07:38:33;;;;;;;3.17;0.30;;;;;;;;;;5018356;28;20025;-75
2022/07/06 07:40:59;;;;;;;0.77;0.20;;;;;;;;;;5018530;28;20026;-75
2022/07/06 07:43:26;;;;;;;2.30;0.47;;;;;;;;;;5016428;28;20080;-73
2022/07/06 07:45:52;;;;;;;0.65;0.30;;;;;;;;;;5016308;28;20026;-73
2022/07/06 07:48:18;;;;;;;5.05;0.50;;;;;;;;;;5016123;28;20441;-75
2022/07/06 07:50:44;;;;;;;0.85;0.30;;;;;;;;;;5015948;28;20029;-73
2022/07/06 07:53:10;;;;;;;1.20;0.32;;;;;;;;;;5015652;28;20108;-74
2022/07/06 07:55:36;;;;;;;3.58;0.47;;;;;;;;;;5017716;28;20034;-77
2022/07/06 07:58:02;;;;;;;2.22;0.40;;;;;;;;;;5012283;28;20037;-74
2022/07/06 08:00:29;;;;;;;3.97;0.80;;;;;;;;;;5015902;28;20073;-78
2022/07/06 08:02:55;;;;;;;1.33;0.20;;;;;;;;;;5016210;28;20076;-77
2022/07/06 08:05:21;;;;;;;2.33;0.38;;;;;;;;;;5016975;28;20114;-77
2022/07/06 08:07:47;;;;;;;1.27;0.30;;;;;;;;;;5016194;28;20061;-76
2022/07/06 08:10:13;;;;;;;3.72;0.63;;;;;;;;;;5015493;28;20030;-77
2022/07/06 08:12:40;;;;;;;0.50;0.20;;;;;;;;;;5015318;28;20087;-77
2022/07/06 08:15:06;;;;;;;3.28;0.30;;;;;;;;;;5015123;28;20423;-78
2022/07/06 08:17:32;;;;;;;3.00;0.50;;;;;;;;;;5015045;28;20041;-77
2022/07/06 08:19:59;;;;;;;4.05;0.40;;;;;;;;;;5014934;28;20026;-76
2022/07/06 08:22:25;;;;;;;2.83;0.25;;;;;;;;;;5015004;28;20530;-77
2022/07/06 08:24:51;;;;;;;1.80;0.32;;;;;;;;;;5015090;28;20060;-75
2022/07/06 08:27:17;;;;;;;4.63;0.43;;;;;;;;;;5011976;28;20015;-76
2022/07/06 08:29:43;;;;;;;1.45;0.38;;;;;;;;;;5003729;28;20096;-75
2022/07/06 08:32:09;;;;;;;0.98;0.20;;;;;;;;;;4995036;28;20030;-75
2022/07/06 08:34:35;;;;;;;2.38;0.20;;;;;;;;;;4995123;28;20173;-74
2022/07/06 08:37:02;;;;;;;4.93;0.40;;;;;;;;;;5001793;28;20045;-75
2022/07/06 08:39:28;;;;;;;4.90;0.52;;;;;;;;;;5003068;28;20045;-74
2022/07/06 08:41:56;;;;;;;1.27;0.30;;;;;;;;;;4999770;28;20041;-77
2022/07/06 08:44:23;;;;;;;1.65;0.38;;;;;;;;;;5009900;28;20045;-76
2022/07/06 08:46:49;;;;;;;2.75;0.28;;;;;;;;;;5013786;28;20476;-77
2022/07/06 08:49:17;;;;;;;2.55;0.50;;;;;;;;;;5014752;28;20113;-77
2022/07/06 08:51:43;;;;;;;4.13;0.65;;;;;;;;;;5013136;28;20049;-73
2022/07/06 08:54:11;;;;;;;0.45;0.10;;;;;;;;;;5003644;28;20034;-73
2022/07/06 08:56:38;;;;;;;2.85;0.50;;;;;;;;;;4994682;28;20064;-73
2022/07/06 08:59:04;;;;;;;1.75;0.30;;;;;;;;;;5009791;28;20038;-73
2022/07/06 09:01:30;;;;;;;1.83;0.20;;;;;;;;;;5013638;28;20036;-73
2022/07/06 09:03:56;;;;;;;0.60;0.20;;;;;;;;;;5014102;28;20415;-74
2022/07/06 09:06:24;;;;;;;1.70;0.25;;;;;;;;;;5013133;28;20091;-73
2022/07/06 09:08:52;;;;;;;1.38;0.30;;;;;;;;;;5029351;28;20033;-73
2022/07/06 09:11:18;;;;;;;2.70;0.35;;;;;;;;;;5032796;28;20086;-73
2022/07/06 09:13:45;;;;;;;3.20;0.13;;;;;;;;;;5033333;28;20479;-74
2022/07/06 09:16:12;;;;;;;1.65;0.30;;;;;;;;;;5033566;28;20360;-74
2022/07/06 09:18:42;;;;;;;3.03;0.38;;;;;;;;;;5016658;28;20040;-74
2022/07/06 09:21:08;;;;;;;1.83;0.22;;;;;;;;;;5013589;28;20026;-74
2022/07/06 09:23:36;;;;;;;1.70;0.28;;;;;;;;;;5013661;28;20109;-73
2022/07/06 09:26:03;;;;;;;5.22;0.40;;;;;;;;;;5012964;28;20033;-74
2022/07/06 09:28:45;;;;;;;3.35;0.40;;;;;;;;;;5013468;28;20369;-73
2022/07/06 09:31:11;;;;;;;3.08;0.50;;;;;;;;;;5013453;28;20042;-74
2022/07/06 09:33:38;;;;;;;4.20;0.60;;;;;;;;;;5013529;28;20080;-74
2022/07/06 09:36:05;;;;;;;3.50;0.40;;;;;;;;;;5013303;28;20030;-73
2022/07/06 09:38:32;;;;;;;4.15;0.43;;;;;;;;;;5013405;28;20105;-73
2022/07/06 09:40:58;;;;;;;2.97;0.50;;;;;;;;;;5013367;28;20033;-73
2022/07/06 09:43:25;;;;;;;3.20;0.43;;;;;;;;;;5013388;28;20057;-73
2022/07/06 09:45:51;;;;;;;6.38;0.60;;;;;;;;;;5011630;28;20101;-73
2022/07/06 09:48:18;;;;;;;7.53;0.70;;;;;;;;;;5013263;28;20026;-73
2022/07/06 09:50:50;;;;;;;4.13;0.45;;;;;;;;;;5012956;28;20111;-73
2022/07/06 09:53:17;;;;;;;5.70;0.60;;;;;;;;;;5013253;28;20014;-73
2022/07/06 09:55:49;;;;;;;6.00;0.38;;;;;;;;;;5013077;28;20037;-73
2022/07/06 09:58:16;;;;;;;3.53;0.50;;;;;;;;;;5011656;28;20091;-73
2022/07/06 10:00:44;;;;;;;3.97;0.52;;;;;;;;;;5012884;28;20108;-73
2022/07/06 10:03:10;;;;;;;2.75;0.60;;;;;;;;;;5013000;28;20025;-74
2022/07/06 10:05:39;;;;;;;1.60;0.40;;;;;;;;;;5012742;28;20496;-73
2022/07/06 10:08:08;;;;;;;6.78;0.50;;;;;;;;;;5022654;28;20021;-73
2022/07/06 10:10:35;;;;;;;4.65;0.50;;;;;;;;;;5032273;28;20056;-73
2022/07/06 10:13:02;;;;;;;5.65;0.50;;;;;;;;;;5031100;28;20121;-74
2022/07/06 10:15:31;;;;;;;4.88;0.65;;;;;;;;;;5032297;28;20026;-74
2022/07/06 10:17:58;;;;;;;4.30;0.40;;;;;;;;;;5021195;28;20033;-73
2022/07/06 10:20:25;;;;;;;2.08;0.30;;;;;;;;;;5012538;28;20022;-73
2022/07/06 10:22:51;;;;;;;2.05;0.40;;;;;;;;;;5012729;28;20026;-74
2022/07/06 10:25:18;;;;;;;3.80;0.40;;;;;;;;;;5012660;28;20416;-73
2022/07/06 10:27:46;;;;;;;2.13;0.30;;;;;;;;;;5011101;28;20439;-73
2022/07/06 10:30:12;;;;;;;2.65;0.40;;;;;;;;;;5012283;28;20100;-73
2022/07/06 10:32:39;;;;;;;6.13;0.60;;;;;;;;;;5012576;28;20022;-74
2022/07/06 10:35:06;;;;;;;4.90;0.60;;;;;;;;;;5012396;28;20033;-74
2022/07/06 10:37:33;;;;;;;4.03;0.50;;;;;;;;;;5012500;28;20116;-73
2022/07/06 10:42:53;;;;;;;4.85;0.50;;;;;;;;;;5012421;28;20100;-74
2022/07/06 10:45:21;;;;;;;1.83;0.45;;;;;;;;;;5012113;28;20384;-74
2022/07/06 10:47:47;;;;;;;3.28;0.32;;;;;;;;;;5012319;28;20105;-74
2022/07/06 10:50:13;;;;;;;2.40;0.55;;;;;;;;;;5012126;28;20120;-74
2022/07/06 10:52:50;;;;;;;3.92;0.45;;;;;;;;;;5012391;28;20125;-73
2022/07/06 10:55:32;;;;;;;5.25;0.93;;;;;;;;;;5012190;28;20105;-73
2022/07/06 10:57:58;;;;;;;;;;;;;;;;;;5012686;28;20109;-73
2022/07/06 11:00:24;;;;;;;2.67;0.52;;;;;;;;;;5012036;28;19933;-74
2022/07/06 11:02:50;;;;;;;2.08;0.40;;;;;;;;;;5012055;28;20029;-73
2022/07/06 11:05:45;;;;;;;3.33;0.73;;;;;;;;;;5012004;28;20472;-74
2022/07/06 11:08:11;;;;;;;2.88;0.50;;;;;;;;;;4961578;28;20488;-74
2022/07/06 11:10:47;;;;;;;5.72;0.60;;;;;;;;;;4969821;28;20193;-74
2022/07/06 11:13:26;;;;;;;3.58;0.73;;;;;;;;;;4970601;28;20046;-74
2022/07/06 11:15:52;;;;;;;3.08;0.50;;;;;;;;;;4970361;28;20114;-74
2022/07/06 11:18:21;;;;;;;5.07;0.55;;;;;;;;;;4956610;28;20398;-74
2022/07/06 11:21:19;;;;;;;3.80;0.63;;;;;;;;;;4950938;29;20035;-74
2022/07/06 11:23:49;;;;;;;7.78;0.60;;;;;;;;;;4912997;29;20040;-74
2022/07/06 11:26:15;;;;;;;2.50;0.40;;;;;;;;;;4912843;29;20044;-74
2022/07/06 11:28:42;;;;;;;2.85;0.38;;;;;;;;;;4912896;29;20382;-74
2022/07/06 11:31:08;;;;;;;4.75;0.70;;;;;;;;;;4912886;29;20047;-74
2022/07/06 11:33:34;;;;;;;2.42;0.57;;;;;;;;;;4912936;29;20645;-74
2022/07/06 11:36:15;;;;;;;3.70;0.65;;;;;;;;;;4912754;29;20028;-74
2022/07/06 11:38:42;;;;;;;11.13;0.80;;;;;;;;;;4913021;29;20088;-74
2022/07/06 11:41:08;;;;;;;2.28;0.30;;;;;;;;;;4912789;29;20036;-74
2022/07/06 11:43:34;;;;;;;1.48;0.40;;;;;;;;;;4917652;28;20032;-74
2022/07/06 11:46:00;;;;;;;2.60;0.63;;;;;;;;;;4953634;28;20563;-73
2022/07/06 11:48:26;;;;;;;1.10;0.38;;;;;;;;;;4970163;28;20521;-73
2022/07/06 11:51:02;;;;;;;1.23;0.50;;;;;;;;;;4970028;28;20074;-74
2022/07/06 11:53:28;;;;;;;1.27;0.30;;;;;;;;;;4970258;28;20150;-74
2022/07/06 11:55:54;;;;;;;4.30;0.30;;;;;;;;;;4970113;28;20081;-73
2022/07/06 11:58:22;;;;;;;7.13;0.50;;;;;;;;;;4973942;28;20236;-74
2022/07/06 12:01:03;;;;;;;2.80;0.50;;;;;;;;;;5011216;28;20026;-74
2022/07/06 12:03:29;;;;;;;1.80;0.30;;;;;;;;;;5011475;28;20166;-74
2022/07/06 12:05:55;;;;;;;4.70;0.40;;;;;;;;;;5011316;28;20022;-74
2022/07/06 12:08:21;;;;;;;1.42;0.30;;;;;;;;;;5023275;28;20049;-74
2022/07/06 12:10:48;;;;;;;5.60;0.40;;;;;;;;;;5030951;28;20468;-74
2022/07/06 12:13:14;;;;;;;8.05;0.50;;;;;;;;;;5031112;28;20048;-74
2022/07/06 12:15:40;;;;;;;4.45;0.40;;;;;;;;;;5030904;28;20452;-74
2022/07/06 12:18:06;;;;;;;3.85;0.43;;;;;;;;;;5018766;28;20108;-74
2022/07/06 12:20:32;;;;;;;2.53;0.40;;;;;;;;;;5009630;28;20041;-74
2022/07/06 12:23:05;;;;;;;40.38;1.70;;;;;;;;;;5012415;28;20037;-74
2022/07/06 12:25:35;;;;;;;2.03;0.47;;;;;;;;;;5014674;28;20066;-74
2022/07/06 12:28:02;;;;;;;1.90;0.40;;;;;;;;;;5014582;28;20034;-74
2022/07/06 12:30:28;;;;;;;7.18;0.40;;;;;;;;;;5014311;28;20065;-74
2022/07/06 12:33:27;;;;;;;1.30;0.38;;;;;;;;;;5014487;28;20026;-74
2022/07/06 12:35:54;;;;;;;1.02;0.32;;;;;;;;;;4953731;29;20054;-74
2022/07/06 12:38:30;;;;;;;3.33;0.52;;;;;;;;;;4953837;29;20458;-74
2022/07/06 12:40:56;;;;;;;3.03;0.40;;;;;;;;;;4953689;29;20054;-74
2022/07/06 12:43:41;;;;;;;4.75;0.50;;;;;;;;;;4953640;29;20105;-74
2022/07/06 12:46:26;;;;;;;2.45;0.50;;;;;;;;;;4953201;29;20504;-74
2022/07/06 12:48:55;;;;;;;3.85;0.40;;;;;;;;;;4953691;29;20118;-74
2022/07/06 12:51:21;;;;;;;4.18;0.40;;;;;;;;;;4953047;29;20047;-75
2022/07/06 12:53:48;;;;;;;5.00;0.50;;;;;;;;;;4953606;29;20050;-74
2022/07/06 12:56:15;;;;;;;3.60;0.40;;;;;;;;;;4937354;29;20027;-74
2022/07/06 12:58:55;;;;;;;4.60;0.40;;;;;;;;;;4953540;29;20516;-74
2022/07/06 13:01:21;;;;;;;5.30;0.55;;;;;;;;;;4953316;29;20039;-74
2022/07/06 13:03:47;;;;;;;1.50;0.43;;;;;;;;;;4937264;29;20114;-74
2022/07/06 13:06:13;;;;;;;1.95;0.22;;;;;;;;;;4953179;29;20062;-74
2022/07/06 13:08:39;;;;;;;1.73;0.38;;;;;;;;;;4967167;28;20042;-74
2022/07/06 13:11:05;;;;;;;1.38;0.40;;;;;;;;;;4993484;28;20049;-74
2022/07/06 13:13:31;;;;;;;2.05;0.38;;;;;;;;;;5033637;28;20029;-74
2022/07/06 13:15:57;;;;;;;4.35;0.50;;;;;;;;;;5033641;28;20404;-74
2022/07/06 13:18:23;;;;;;;11.68;0.85;;;;;;;;;;5018623;28;20045;-74
2022/07/06 13:20:49;;;;;;;1.63;0.57;;;;;;;;;;5013663;28;20022;-74
2022/07/06 13:23:15;;;;;;;4.75;0.60;;;;;;;;;;5012302;28;20037;-74
2022/07/06 13:25:41;;;;;;;4.05;0.43;;;;;;;;;;5013600;28;20033;-74
2022/07/06 13:28:07;;;;;;;5.47;0.50;;;;;;;;;;5013601;28;20030;-73
2022/07/06 13:30:33;;;;;;;3.67;0.65;;;;;;;;;;5013223;28;20046;-73
2022/07/06 13:32:59;;;;;;;2.10;0.40;;;;;;;;;;5012953;28;20030;-74
2022/07/06 13:35:25;;;;;;;1.38;0.40;;;;;;;;;;5013167;28;20034;-73
2022/07/06 13:37:51;;;;;;;1.92;0.65;;;;;;;;;;5012119;28;20048;-73
2022/07/06 13:40:18;;;;;;;3.70;0.55;;;;;;;;;;5013348;28;20033;-73
2022/07/06 13:42:44;;;;;;;2.33;0.50;;;;;;;;;;5013291;28;20037;-73
2022/07/06 13:45:10;;;;;;;2.22;0.40;;;;;;;;;;5012943;28;20033;-73
2022/07/06 13:47:36;;;;;;;7.28;0.98;;;;;;;;;;5013201;28;20088;-73
2022/07/06 13:50:02;;;;;;;4.93;1.02;;;;;;;;;;5012859;28;20026;-73
2022/07/06 13:52:28;;;;;;;4.20;0.60;;;;;;;;;;5011709;28;20017;-73
2022/07/06 13:54:54;;;;;;;0.68;0.32;;;;;;;;;;5013045;28;20457;-73
2022/07/06 13:57:20;;;;;;;2.78;0.75;;;;;;;;;;5012956;28;20034;-73
2022/07/06 13:59:46;;;;;;;2.88;0.40;;;;;;;;;;5012988;28;20096;-73
2022/07/06 14:02:13;;;;;;;3.90;0.63;;;;;;;;;;5012619;28;20018;-73
2022/07/06 14:04:39;;;;;;;2.58;0.60;;;;;;;;;;5012124;28;20053;-74
2022/07/06 14:07:05;;;;;;;1.42;0.40;;;;;;;;;;5013886;28;20026;-73
2022/07/06 14:09:31;;;;;;;5.97;0.50;;;;;;;;;;5032534;28;20037;-73
2022/07/06 14:11:57;;;;;;;2.47;0.77;;;;;;;;;;5032349;28;20030;-73
2022/07/06 14:14:23;;;;;;;5.13;0.57;;;;;;;;;;5032381;28;20049;-74
2022/07/06 14:16:50;;;;;;;3.60;0.52;;;;;;;;;;5030209;28;20029;-74
2022/07/06 14:19:17;;;;;;;3.35;0.60;;;;;;;;;;5012625;28;20029;-73
2022/07/06 14:21:44;;;;;;;0.85;0.32;;;;;;;;;;5012308;28;20037;-73
2022/07/06 14:24:10;;;;;;;1.65;0.45;;;;;;;;;;5012599;28;20106;-73
2022/07/06 14:26:36;;;;;;;4.28;0.43;;;;;;;;;;5012381;28;20393;-73
2022/07/06 14:29:02;;;;;;;6.07;0.68;;;;;;;;;;5012440;28;20114;-73
2022/07/06 14:31:28;;;;;;;1.60;0.40;;;;;;;;;;5010652;28;20029;-73
2022/07/06 14:33:54;;;;;;;1.67;0.52;;;;;;;;;;5012380;28;20417;-73
2022/07/06 14:36:20;;;;;;;2.17;0.63;;;;;;;;;;5012349;28;20026;-73
2022/07/06 14:38:46;;;;;;;5.50;0.73;;;;;;;;;;5012483;28;20033;-73
2022/07/06 14:41:12;;;;;;;4.32;0.45;;;;;;;;;;5012221;28;20033;-73
2022/07/06 14:43:38;;;;;;;3.95;0.60;;;;;;;;;;5012254;28;20029;-73
2022/07/06 14:46:05;;;;;;;3.03;0.60;;;;;;;;;;5011400;28;20134;-72
2022/07/06 14:48:31;;;;;;;2.13;0.50;;;;;;;;;;5012327;28;20034;-73
2022/07/06 14:51:00;;;;;;;3.85;0.70;;;;;;;;;;5010599;28;20387;-73